Time;durP1;ratioP1;P1;durP2;ratioP2;P2;SDS_P1;SDS_P2;PMS_P1;PMS_P2;Temp;Humidity;BMP_temperature;BMP_pressure;BME280_temperature;BME280_humidity;BME280_pressure;Samples;Min_cycle;Max_cycle;Signal;HPM_P1;HPM_P2
2023/12/27 00:00:47;;;;;;;7.78;7.15;;;2.30;99.90;;;;;;5036575;28;20053;-81
2023/12/27 00:03:12;;;;;;;7.32;6.72;;;2.30;99.90;;;;;;5019998;28;20398;-81
2023/12/27 00:05:38;;;;;;;8.35;7.72;;;2.30;99.90;;;;;;5019680;28;20478;-83
2023/12/27 00:08:04;;;;;;;8.38;7.75;;;2.60;99.90;;;;;;5035913;28;20038;-81
2023/12/27 00:10:29;;;;;;;11.02;7.05;;;2.30;99.90;;;;;;5019877;28;20057;-81
2023/12/27 00:12:55;;;;;;;7.38;6.80;;;2.30;99.90;;;;;;5002940;28;20037;-82
2023/12/27 00:15:21;;;;;;;10.13;7.03;;;2.30;99.90;;;;;;5019441;28;20045;-81
2023/12/27 00:17:46;;;;;;;8.10;7.30;;;2.30;99.90;;;;;;5036107;28;20099;-81
2023/12/27 00:20:12;;;;;;;7.70;7.10;;;2.60;99.90;;;;;;5019674;28;20045;-81
2023/12/27 00:22:38;;;;;;;7.95;7.35;;;2.70;99.90;;;;;;5019734;28;20061;-82
2023/12/27 00:25:04;;;;;;;9.50;8.50;;;2.20;99.90;;;;;;5019382;28;20077;-81
2023/12/27 00:27:29;;;;;;;8.70;8.00;;;2.10;99.90;;;;;;5020159;28;20532;-82
2023/12/27 00:29:55;;;;;;;10.50;8.52;;;2.10;99.90;;;;;;5020051;28;20140;-82
2023/12/27 00:32:21;;;;;;;9.25;8.27;;;2.10;99.90;;;;;;5019953;28;20374;-82
2023/12/27 00:34:48;;;;;;;8.38;7.78;;;2.10;99.90;;;;;;5019650;28;20049;-81
2023/12/27 00:37:15;;;;;;;9.05;8.00;;;2.20;99.90;;;;;;5019111;28;20128;-81
2023/12/27 00:39:41;;;;;;;9.00;8.10;;;2.20;99.90;;;;;;5019843;28;20049;-81
2023/12/27 00:42:06;;;;;;;11.73;9.20;;;2.60;99.90;;;;;;5018937;28;20619;-81
2023/12/27 00:44:32;;;;;;;10.60;9.85;;;2.20;99.90;;;;;;5035120;28;20061;-81
2023/12/27 00:46:58;;;;;;;9.40;8.45;;;2.20;99.90;;;;;;5035581;28;20079;-82
2023/12/27 00:49:24;;;;;;;16.40;8.52;;;2.40;99.90;;;;;;5018876;28;20099;-81
2023/12/27 00:51:49;;;;;;;13.73;8.57;;;2.20;99.90;;;;;;5035332;28;20046;-82
2023/12/27 00:54:15;;;;;;;8.93;8.13;;;2.60;99.90;;;;;;5003400;28;20448;-81
2023/12/27 00:56:41;;;;;;;8.63;7.90;;;2.70;99.90;;;;;;5035595;28;20046;-82
2023/12/27 00:59:06;;;;;;;9.32;7.93;;;2.20;99.90;;;;;;5018981;28;20092;-81
2023/12/27 01:01:32;;;;;;;10.13;8.20;;;2.90;99.90;;;;;;5019500;28;20053;-81
2023/12/27 01:03:58;;;;;;;9.07;8.38;;;2.50;99.90;;;;;;5018623;28;20046;-82
2023/12/27 01:06:24;;;;;;;9.38;8.57;;;2.20;99.90;;;;;;5017961;28;20106;-82
2023/12/27 01:08:50;;;;;;;9.13;8.32;;;2.20;99.90;;;;;;5034974;28;20098;-82
2023/12/27 01:11:15;;;;;;;8.10;7.60;;;2.10;99.90;;;;;;5034961;28;20045;-82
2023/12/27 01:13:41;;;;;;;9.10;8.32;;;2.10;99.90;;;;;;5002281;28;20467;-82
2023/12/27 01:16:07;;;;;;;9.75;8.73;;;2.10;99.90;;;;;;5018361;28;20052;-82
2023/12/27 01:18:33;;;;;;;10.43;9.52;;;1.90;99.90;;;;;;5034311;28;20045;-80
2023/12/27 01:20:59;;;;;;;11.25;10.20;;;1.90;99.90;;;;;;5002283;28;20398;-80
2023/12/27 01:23:25;;;;;;;9.57;8.68;;;2.00;99.90;;;;;;5018304;28;20057;-80
2023/12/27 01:25:51;;;;;;;10.15;9.18;;;2.00;99.90;;;;;;5034722;28;20376;-80
2023/12/27 01:28:16;;;;;;;10.43;9.38;;;2.80;99.90;;;;;;5034658;28;20445;-79
2023/12/27 01:30:42;;;;;;;10.50;9.70;;;2.10;99.90;;;;;;5035906;28;20128;-80
2023/12/27 01:33:08;;;;;;;11.15;9.23;;;2.10;99.90;;;;;;5035211;28;20467;-80
2023/12/27 01:35:33;;;;;;;10.65;9.90;;;2.50;99.90;;;;;;5002066;28;20049;-80
2023/12/27 01:37:59;;;;;;;12.80;9.25;;;2.20;99.90;;;;;;5034747;28;20045;-79
2023/12/27 01:40:25;;;;;;;11.18;10.18;;;2.20;99.90;;;;;;5017935;28;20042;-79
2023/12/27 01:42:50;;;;;;;11.60;10.48;;;2.90;99.90;;;;;;5034246;28;20046;-80
2023/12/27 01:45:16;;;;;;;11.02;10.02;;;2.20;99.90;;;;;;5033956;28;20053;-79
2023/12/27 01:47:42;;;;;;;10.55;9.57;;;2.20;99.90;;;;;;5017666;28;20057;-79
2023/12/27 01:50:09;;;;;;;10.50;9.80;;;2.10;99.90;;;;;;5034409;28;20099;-79
2023/12/27 01:52:40;;;;;;;14.80;11.00;;;2.30;99.90;;;;;;5035145;28;20050;-80
2023/12/27 01:55:10;;;;;;;10.90;10.15;;;2.60;99.90;;;;;;5034880;28;20053;-79
2023/12/27 01:57:38;;;;;;;10.65;9.95;;;2.10;99.90;;;;;;5017576;28;20119;-79
2023/12/27 02:00:08;;;;;;;10.73;9.85;;;2.10;99.90;;;;;;5034032;28;20060;-79
2023/12/27 02:02:33;;;;;;;10.55;9.75;;;2.10;99.90;;;;;;5017487;28;20122;-79
2023/12/27 02:04:59;;;;;;;11.07;10.05;;;2.20;99.90;;;;;;5017557;28;20168;-79
2023/12/27 02:07:25;;;;;;;10.93;10.10;;;2.60;99.90;;;;;;5033885;28;20487;-79
2023/12/27 02:09:51;;;;;;;11.52;10.52;;;2.00;99.90;;;;;;5033805;28;20049;-79
2023/12/27 02:12:29;;;;;;;14.43;9.98;;;2.30;99.90;;;;;;5033326;28;20039;-79
2023/12/27 02:14:56;;;;;;;10.10;9.38;;;2.00;99.90;;;;;;5033985;28;20038;-80
2023/12/27 02:17:22;;;;;;;11.00;9.60;;;2.20;99.90;;;;;;5033653;28;20132;-79
2023/12/27 02:19:48;;;;;;;9.98;9.05;;;2.20;99.90;;;;;;5032920;28;20125;-79
2023/12/27 02:22:22;;;;;;;8.80;8.10;;;1.80;99.90;;;;;;5034021;28;20132;-79
2023/12/27 02:24:49;;;;;;;6.88;6.38;;;1.70;99.90;;;;;;5033977;28;20045;-79
2023/12/27 02:27:15;;;;;;;9.75;8.95;;;2.00;99.90;;;;;;5017208;28;20132;-79
2023/12/27 02:29:41;;;;;;;10.20;9.50;;;2.00;99.90;;;;;;5033849;28;20115;-79
2023/12/27 02:32:08;;;;;;;9.18;8.38;;;1.50;99.90;;;;;;5000940;28;20482;-79
2023/12/27 02:34:34;;;;;;;11.90;9.32;;;1.40;99.90;;;;;;5017281;28;20103;-79
2023/12/27 02:37:00;;;;;;;10.85;9.90;;;1.30;99.90;;;;;;5000684;28;20064;-79
2023/12/27 02:39:26;;;;;;;10.13;9.32;;;1.70;99.90;;;;;;5033393;28;20046;-79
2023/12/27 02:41:52;;;;;;;10.23;8.32;;;1.20;99.90;;;;;;5016834;28;20050;-79
2023/12/27 02:44:18;;;;;;;9.52;8.80;;;1.10;99.90;;;;;;5032976;28;20050;-79
2023/12/27 02:46:44;;;;;;;10.13;8.50;;;1.00;99.90;;;;;;5033552;28;20100;-79
2023/12/27 02:49:09;;;;;;;9.00;8.43;;;1.00;99.90;;;;;;5033239;28;20521;-79
2023/12/27 02:51:35;;;;;;;9.73;9.02;;;0.90;99.90;;;;;;5033192;28;20118;-79
2023/12/27 02:54:01;;;;;;;10.52;9.52;;;1.40;99.90;;;;;;5016681;28;20037;-80
2023/12/27 02:56:26;;;;;;;10.82;9.93;;;1.10;99.90;;;;;;5016914;28;20122;-79
2023/12/27 02:58:52;;;;;;;10.45;9.60;;;1.00;99.90;;;;;;5016915;28;20048;-79
2023/12/27 03:01:18;;;;;;;9.63;8.93;;;1.00;99.90;;;;;;5016861;28;20089;-79
2023/12/27 03:03:43;;;;;;;9.57;8.63;;;1.00;99.90;;;;;;5032989;28;20091;-79
2023/12/27 03:06:09;;;;;;;9.32;8.43;;;1.30;99.90;;;;;;5032955;28;20131;-79
2023/12/27 03:08:36;;;;;;;10.45;9.30;;;1.10;99.90;;;;;;4999940;28;20049;-79
2023/12/27 03:11:02;;;;;;;8.57;7.78;;;1.20;99.90;;;;;;5016740;28;20119;-79
2023/12/27 03:13:28;;;;;;;9.05;8.55;;;1.10;99.90;;;;;;5032547;28;20045;-79
2023/12/27 03:15:54;;;;;;;10.50;9.60;;;1.70;99.90;;;;;;5033096;28;20049;-79
2023/12/27 03:18:19;;;;;;;9.85;9.20;;;1.10;99.90;;;;;;5032819;28;20371;-79
2023/12/27 03:20:45;;;;;;;9.80;9.18;;;1.20;99.90;;;;;;5033525;28;20072;-79
2023/12/27 03:23:11;;;;;;;11.77;9.25;;;1.20;99.90;;;;;;5032731;28;20088;-79
2023/12/27 03:25:36;;;;;;;10.00;9.30;;;1.30;99.90;;;;;;5016287;28;20095;-79
2023/12/27 03:28:02;;;;;;;10.52;9.73;;;1.40;99.90;;;;;;5032643;28;20063;-79
2023/12/27 03:30:28;;;;;;;10.43;9.55;;;1.40;99.90;;;;;;5033060;28;20076;-80
2023/12/27 03:32:53;;;;;;;9.30;8.75;;;1.70;99.90;;;;;;5032681;28;20088;-79
2023/12/27 03:35:19;;;;;;;11.20;10.43;;;1.50;99.90;;;;;;5032576;28;20046;-79
2023/12/27 03:37:45;;;;;;;11.45;10.65;;;1.50;99.90;;;;;;5032539;28;20053;-79
2023/12/27 03:40:11;;;;;;;9.65;8.95;;;1.70;99.90;;;;;;5016120;28;20045;-79
2023/12/27 03:42:37;;;;;;;8.93;8.18;;;1.60;99.90;;;;;;5016879;28;20046;-79
2023/12/27 03:45:03;;;;;;;10.43;9.43;;;1.60;99.90;;;;;;5031872;28;20049;-79
2023/12/27 03:47:29;;;;;;;12.23;11.27;;;1.50;99.90;;;;;;5032731;28;20131;-79
2023/12/27 03:49:55;;;;;;;13.95;12.85;;;1.90;99.90;;;;;;5033214;28;20131;-79
2023/12/27 03:52:20;;;;;;;14.07;13.20;;;1.90;99.90;;;;;;5032287;28;20049;-79
2023/12/27 03:54:46;;;;;;;18.63;17.30;;;1.70;99.90;;;;;;5015863;28;20522;-79
2023/12/27 03:57:12;;;;;;;19.10;17.77;;;1.60;99.90;;;;;;5016171;28;20057;-79
2023/12/27 03:59:40;;;;;;;17.48;16.38;;;1.70;99.90;;;;;;5032310;28;20042;-79
2023/12/27 04:02:07;;;;;;;16.85;15.55;;;1.80;99.90;;;;;;5032883;28;20390;-79
2023/12/27 04:04:33;;;;;;;12.63;11.73;;;2.10;99.90;;;;;;5032083;28;20052;-79
2023/12/27 04:07:00;;;;;;;10.48;9.60;;;1.80;99.90;;;;;;5032287;28;20084;-79
2023/12/27 04:09:25;;;;;;;10.00;9.20;;;1.80;99.90;;;;;;5031933;28;20402;-79
2023/12/27 04:11:51;;;;;;;10.30;9.55;;;2.00;99.90;;;;;;5032450;28;20049;-79
2023/12/27 04:14:17;;;;;;;9.70;8.80;;;1.70;99.90;;;;;;5015957;28;20350;-79
2023/12/27 04:16:43;;;;;;;9.57;8.98;;;1.60;99.90;;;;;;5032207;28;20136;-79
2023/12/27 04:19:09;;;;;;;10.02;9.43;;;1.60;99.90;;;;;;5033022;28;20156;-79
2023/12/27 04:21:35;;;;;;;11.52;10.63;;;1.50;99.90;;;;;;5032194;28;20050;-79
2023/12/27 04:24:00;;;;;;;10.85;10.05;;;1.50;99.90;;;;;;5016465;28;20455;-79
2023/12/27 04:26:26;;;;;;;11.82;11.00;;;1.50;99.90;;;;;;5015901;28;20132;-79
2023/12/27 04:28:52;;;;;;;12.20;11.40;;;1.90;99.90;;;;;;5032890;28;20053;-79
2023/12/27 04:31:17;;;;;;;11.43;10.30;;;1.70;99.90;;;;;;5015637;28;20553;-79
2023/12/27 04:33:43;;;;;;;10.60;9.90;;;1.50;99.90;;;;;;5015362;28;20060;-79
2023/12/27 04:36:09;;;;;;;10.27;9.50;;;2.00;99.90;;;;;;5033814;28;20077;-79
2023/12/27 04:38:34;;;;;;;9.25;8.60;;;2.00;99.90;;;;;;5032006;28;20045;-79
2023/12/27 04:41:07;;;;;;;9.30;8.70;;;1.90;99.90;;;;;;5031843;28;20052;-79
2023/12/27 04:43:32;;;;;;;9.43;8.80;;;1.50;99.90;;;;;;5035110;28;20057;-79
2023/12/27 04:45:58;;;;;;;10.57;9.65;;;1.90;99.90;;;;;;5019078;28;20057;-79
2023/12/27 04:48:24;;;;;;;9.70;9.00;;;1.50;99.90;;;;;;5035773;28;20045;-79
2023/12/27 04:50:49;;;;;;;9.95;9.25;;;1.50;99.90;;;;;;5035485;28;20099;-79
2023/12/27 04:53:15;;;;;;;10.38;9.57;;;1.60;99.90;;;;;;5035222;28;20045;-79
2023/12/27 04:55:40;;;;;;;10.55;9.85;;;1.40;99.90;;;;;;5036077;28;20045;-79
2023/12/27 04:58:06;;;;;;;12.13;10.23;;;1.40;99.90;;;;;;5036256;28;20052;-79
2023/12/27 05:00:32;;;;;;;12.65;10.93;;;1.80;99.90;;;;;;5018842;28;20045;-79
2023/12/27 05:02:57;;;;;;;14.48;13.40;;;1.40;99.90;;;;;;5034945;28;20130;-79
2023/12/27 05:05:23;;;;;;;13.95;12.75;;;1.40;99.90;;;;;;5034849;28;20099;-79
2023/12/27 05:07:49;;;;;;;13.77;12.68;;;2.00;99.90;;;;;;5035125;28;20096;-79
2023/12/27 05:10:15;;;;;;;12.50;11.55;;;1.80;99.90;;;;;;5035087;28;20076;-79
2023/12/27 05:12:41;;;;;;;13.40;12.45;;;1.50;99.90;;;;;;5018372;28;20454;-79
2023/12/27 05:15:07;;;;;;;13.00;11.98;;;1.50;99.90;;;;;;5018649;28;20445;-79
2023/12/27 05:17:33;;;;;;;13.52;12.52;;;1.50;99.90;;;;;;5018551;28;20041;-79
2023/12/27 05:19:58;;;;;;;14.05;13.13;;;2.10;99.90;;;;;;5035698;28;20462;-79
2023/12/27 05:22:26;;;;;;;13.63;12.48;;;2.00;99.90;;;;;;5018439;28;20045;-79
2023/12/27 05:24:52;;;;;;;12.48;11.70;;;1.60;99.90;;;;;;5034763;28;20048;-79
2023/12/27 05:27:18;;;;;;;12.20;11.40;;;1.60;99.90;;;;;;5034731;28;20418;-79
2023/12/27 05:29:43;;;;;;;11.95;11.00;;;1.90;99.90;;;;;;5018501;28;20042;-79
2023/12/27 05:32:10;;;;;;;11.88;11.02;;;1.60;99.90;;;;;;5035554;28;20534;-79
2023/12/27 05:34:36;;;;;;;12.75;11.48;;;1.60;99.90;;;;;;5036162;28;20124;-79
2023/12/27 05:37:02;;;;;;;12.43;11.63;;;1.80;99.90;;;;;;5035536;28;20056;-79
2023/12/27 05:39:28;;;;;;;10.20;9.32;;;1.60;99.90;;;;;;5034583;28;20042;-79
2023/12/27 05:41:54;;;;;;;12.30;11.35;;;1.70;99.90;;;;;;5034567;28;20060;-79
2023/12/27 05:44:19;;;;;;;11.45;10.65;;;1.70;99.90;;;;;;5017982;28;20483;-79
2023/12/27 05:46:45;;;;;;;11.02;10.27;;;1.50;99.90;;;;;;5018750;28;20361;-79
2023/12/27 05:49:10;;;;;;;12.73;11.80;;;1.40;99.90;;;;;;5034380;28;20083;-79
2023/12/27 05:51:36;;;;;;;13.75;12.90;;;1.60;99.90;;;;;;5017832;28;20045;-79
2023/12/27 05:54:02;;;;;;;13.13;12.38;;;1.50;99.90;;;;;;5033656;28;20062;-79
2023/12/27 05:56:28;;;;;;;13.10;12.30;;;1.50;99.90;;;;;;5034235;28;20590;-79
2023/12/27 05:58:54;;;;;;;15.05;14.10;;;1.90;99.90;;;;;;5017704;28;20053;-79
2023/12/27 06:01:19;;;;;;;15.05;14.05;;;2.00;99.90;;;;;;5017723;28;20064;-79
2023/12/27 06:03:45;;;;;;;15.07;13.88;;;1.70;99.90;;;;;;5017923;28;20049;-79
2023/12/27 06:06:11;;;;;;;14.98;13.75;;;2.00;99.90;;;;;;5034592;28;20485;-79
2023/12/27 06:08:37;;;;;;;14.73;13.70;;;1.80;99.90;;;;;;5033822;28;20053;-79
2023/12/27 06:11:02;;;;;;;15.25;14.25;;;1.80;99.90;;;;;;5034008;28;20509;-79
2023/12/27 06:13:28;;;;;;;14.27;13.10;;;1.80;99.90;;;;;;5016883;28;20056;-79
2023/12/27 06:15:54;;;;;;;15.35;14.05;;;1.80;99.90;;;;;;5033904;28;20113;-79
2023/12/27 06:18:19;;;;;;;17.35;15.27;;;1.90;99.90;;;;;;5034096;28;20049;-79
2023/12/27 06:20:45;;;;;;;23.00;21.23;;;1.90;99.90;;;;;;5017615;28;20359;-79
2023/12/27 06:23:11;;;;;;;16.23;15.13;;;1.90;99.90;;;;;;5033685;28;20140;-79
2023/12/27 06:25:36;;;;;;;17.35;16.25;;;1.90;99.90;;;;;;5034509;28;20116;-79
2023/12/27 06:28:04;;;;;;;17.58;16.38;;;2.00;99.90;;;;;;5000879;28;20099;-79
2023/12/27 06:30:29;;;;;;;16.92;15.75;;;2.00;99.90;;;;;;5033632;28;20087;-79
2023/12/27 06:32:55;;;;;;;16.05;14.90;;;2.70;99.90;;;;;;5016941;28;20076;-79
2023/12/27 06:35:21;;;;;;;16.40;15.35;;;2.00;99.90;;;;;;5033200;28;20096;-79
2023/12/27 06:37:47;;;;;;;15.65;14.40;;;2.40;99.90;;;;;;5034284;28;20108;-79
2023/12/27 06:40:13;;;;;;;16.05;14.82;;;2.30;99.90;;;;;;5033666;28;20037;-79
2023/12/27 06:42:38;;;;;;;15.77;14.60;;;2.00;99.90;;;;;;5034130;28;20478;-79
2023/12/27 06:45:05;;;;;;;16.48;15.40;;;2.20;99.90;;;;;;5033019;28;20057;-79
2023/12/27 06:47:30;;;;;;;15.52;14.50;;;2.10;99.90;;;;;;5033298;28;20132;-79
2023/12/27 06:49:56;;;;;;;16.58;15.48;;;2.30;99.90;;;;;;5016742;28;20084;-79
2023/12/27 06:52:22;;;;;;;16.35;15.35;;;2.10;99.90;;;;;;5032811;28;20044;-79
2023/12/27 06:54:47;;;;;;;16.48;15.05;;;2.10;99.90;;;;;;5033339;28;20053;-79
2023/12/27 06:57:13;;;;;;;16.95;15.93;;;2.40;99.90;;;;;;5033149;28;20049;-78
2023/12/27 06:59:39;;;;;;;17.20;16.15;;;2.10;99.90;;;;;;5016880;28;20492;-79
2023/12/27 07:02:07;;;;;;;16.83;15.57;;;2.10;99.90;;;;;;5034581;28;20163;-79
2023/12/27 07:04:33;;;;;;;17.13;16.02;;;2.20;99.90;;;;;;5033389;28;20103;-79
2023/12/27 07:06:59;;;;;;;16.15;15.05;;;2.70;99.90;;;;;;5033018;28;20049;-79
2023/12/27 07:09:24;;;;;;;17.85;16.55;;;2.60;99.90;;;;;;5033101;28;20052;-83
2023/12/27 07:11:50;;;;;;;16.42;15.15;;;2.30;99.90;;;;;;5032858;28;20051;-83
2023/12/27 07:14:16;;;;;;;17.40;15.07;;;2.60;99.90;;;;;;5016011;28;20483;-84
2023/12/27 07:16:42;;;;;;;16.52;15.32;;;2.40;99.90;;;;;;5032814;28;20050;-84
2023/12/27 07:19:08;;;;;;;16.70;15.48;;;2.30;99.90;;;;;;5016293;28;20377;-83
2023/12/27 07:21:33;;;;;;;14.77;13.48;;;2.30;99.90;;;;;;5016207;28;20041;-84
2023/12/27 07:23:59;;;;;;;15.20;14.10;;;2.30;99.90;;;;;;5016326;28;20049;-84
2023/12/27 07:26:25;;;;;;;16.35;15.15;;;2.40;99.90;;;;;;5032659;28;20506;-83
2023/12/27 07:28:50;;;;;;;16.95;15.57;;;2.40;99.90;;;;;;5032925;28;20387;-83
2023/12/27 07:31:16;;;;;;;16.70;15.60;;;2.90;99.90;;;;;;5016170;28;20483;-83
2023/12/27 07:33:42;;;;;;;17.23;15.63;;;2.50;99.90;;;;;;4999580;28;20037;-83
2023/12/27 07:36:08;;;;;;;16.00;14.68;;;2.90;99.90;;;;;;5032544;28;20052;-84
2023/12/27 07:38:34;;;;;;;19.98;18.67;;;2.50;99.90;;;;;;4999924;28;20367;-84
2023/12/27 07:41:00;;;;;;;16.90;15.70;;;2.50;99.90;;;;;;5033258;28;20045;-84
2023/12/27 07:43:26;;;;;;;16.92;15.70;;;2.90;99.90;;;;;;4999379;28;20552;-82
2023/12/27 07:45:51;;;;;;;17.55;16.15;;;3.00;99.90;;;;;;5032366;28;20045;-84
2023/12/27 07:48:17;;;;;;;16.98;15.90;;;3.10;99.90;;;;;;5016296;28;20132;-84
2023/12/27 07:50:43;;;;;;;16.35;15.15;;;2.70;99.90;;;;;;5016035;28;20097;-84
2023/12/27 07:53:09;;;;;;;15.00;14.10;;;2.60;99.90;;;;;;5015805;28;20477;-83
2023/12/27 07:55:35;;;;;;;16.13;14.98;;;2.60;99.90;;;;;;5015995;28;20136;-84
2023/12/27 07:58:00;;;;;;;16.98;15.77;;;3.20;99.90;;;;;;5032304;28;20037;-83
2023/12/27 08:00:26;;;;;;;18.33;16.70;;;2.70;99.90;;;;;;5015891;28;20111;-83
2023/12/27 08:02:53;;;;;;;18.73;17.08;;;2.70;99.90;;;;;;5015950;28;20124;-83
2023/12/27 08:05:18;;;;;;;17.00;15.57;;;2.80;99.90;;;;;;5016242;28;20060;-83
2023/12/27 08:07:45;;;;;;;18.15;16.77;;;2.90;99.90;;;;;;4982375;28;20045;-83
2023/12/27 08:10:10;;;;;;;18.90;16.50;;;2.90;99.90;;;;;;5014962;28;20050;-83
2023/12/27 08:12:36;;;;;;;17.63;16.42;;;2.90;99.90;;;;;;5031253;28;20581;-83
2023/12/27 08:15:02;;;;;;;18.00;16.38;;;2.90;99.90;;;;;;5032001;28;20047;-84
2023/12/27 08:17:28;;;;;;;18.23;16.92;;;2.90;99.90;;;;;;5017587;28;20071;-84
2023/12/27 08:19:54;;;;;;;18.13;16.98;;;3.50;99.90;;;;;;5020267;28;20045;-84
2023/12/27 08:22:20;;;;;;;16.88;15.82;;;3.50;99.90;;;;;;5035171;28;20371;-79
2023/12/27 08:24:46;;;;;;;18.80;17.40;;;3.10;99.90;;;;;;5019023;28;20045;-79
2023/12/27 08:27:12;;;;;;;18.00;16.77;;;3.60;99.90;;;;;;5035665;28;20048;-80
2023/12/27 08:29:38;;;;;;;19.20;17.80;;;3.20;99.90;;;;;;5035672;28;20045;-80
2023/12/27 08:32:04;;;;;;;17.23;15.73;;;3.20;99.90;;;;;;5035414;28;20096;-80
2023/12/27 08:34:29;;;;;;;17.33;16.10;;;3.20;99.90;;;;;;5018722;28;20467;-81
2023/12/27 08:36:55;;;;;;;17.30;16.00;;;3.30;99.90;;;;;;5036231;28;20041;-81
2023/12/27 08:39:21;;;;;;;17.55;16.25;;;4.10;99.90;;;;;;5019842;28;20092;-80
2023/12/27 08:41:47;;;;;;;17.38;15.85;;;3.70;99.90;;;;;;5035843;28;20041;-81
2023/12/27 08:44:12;;;;;;;17.75;16.55;;;3.60;99.90;;;;;;5018360;28;20409;-80
2023/12/27 08:46:39;;;;;;;16.27;15.20;;;3.40;99.90;;;;;;5002698;28;20048;-80
2023/12/27 08:49:05;;;;;;;16.92;15.70;;;3.60;99.90;;;;;;5035377;28;20057;-80
2023/12/27 08:51:30;;;;;;;17.30;16.10;;;3.90;99.90;;;;;;5035560;28;20041;-79
2023/12/27 08:53:56;;;;;;;16.92;15.93;;;3.50;99.90;;;;;;5034972;28;20099;-80
2023/12/27 08:56:22;;;;;;;16.73;15.40;;;4.10;99.90;;;;;;5035342;28;20490;-81
2023/12/27 08:58:48;;;;;;;16.77;15.48;;;3.60;99.90;;;;;;5035225;28;20049;-81
2023/12/27 09:01:13;;;;;;;17.17;16.00;;;3.60;99.90;;;;;;5035448;28;20474;-80
2023/12/27 09:03:39;;;;;;;18.35;16.80;;;3.70;99.90;;;;;;5018984;28;20053;-80
2023/12/27 09:06:05;;;;;;;19.38;17.80;;;3.70;99.90;;;;;;5035889;28;20052;-80
2023/12/27 09:08:31;;;;;;;17.13;15.88;;;3.70;99.90;;;;;;5035095;28;20056;-80
2023/12/27 09:10:56;;;;;;;27.70;25.33;;;3.70;99.90;;;;;;5035008;28;20379;-80
2023/12/27 09:13:22;;;;;;;18.25;16.90;;;3.70;99.90;;;;;;5018879;28;20042;-80
2023/12/27 09:15:48;;;;;;;17.63;16.20;;;3.80;99.90;;;;;;5018487;28;20089;-80
2023/12/27 09:18:14;;;;;;;17.83;16.30;;;3.80;99.90;;;;;;5018458;28;20091;-80
2023/12/27 09:20:39;;;;;;;17.20;15.77;;;4.10;99.90;;;;;;5034937;28;20050;-80
2023/12/27 09:23:05;;;;;;;17.10;15.75;;;4.10;99.90;;;;;;5035587;28;20489;-80
2023/12/27 09:25:30;;;;;;;17.27;15.75;;;3.90;99.90;;;;;;5018532;28;20496;-81
2023/12/27 09:27:57;;;;;;;17.17;15.82;;;3.90;99.90;;;;;;5034155;28;20065;-83
2023/12/27 09:30:22;;;;;;;16.33;15.18;;;3.90;99.90;;;;;;5034346;28;20061;-83
2023/12/27 09:32:49;;;;;;;16.80;15.40;;;4.00;99.90;;;;;;5018044;28;20037;-82
2023/12/27 09:35:15;;;;;;;17.63;16.30;;;4.00;99.90;;;;;;5019060;28;20057;-81
2023/12/27 09:37:40;;;;;;;17.65;16.25;;;4.00;99.90;;;;;;5035227;28;20366;-81
2023/12/27 09:40:06;;;;;;;19.77;18.05;;;4.10;99.90;;;;;;5034532;28;20056;-82
2023/12/27 09:42:32;;;;;;;18.58;16.85;;;4.10;99.90;;;;;;5034402;28;20194;-81
2023/12/27 09:45:00;;;;;;;18.63;16.73;;;4.20;99.90;;;;;;5033973;28;20137;-80
2023/12/27 09:47:29;;;;;;;18.13;16.95;;;4.20;99.90;;;;;;5035300;28;20096;-80
2023/12/27 09:49:58;;;;;;;18.70;17.20;;;4.30;99.90;;;;;;5033972;28;20049;-80
2023/12/27 09:52:24;;;;;;;18.85;17.42;;;4.30;99.90;;;;;;5017641;28;20133;-81
2023/12/27 09:54:50;;;;;;;18.77;17.10;;;4.40;99.90;;;;;;5035508;28;20461;-80
2023/12/27 09:57:16;;;;;;;19.10;17.25;;;4.40;99.90;;;;;;5035707;28;20080;-81
2023/12/27 09:59:46;;;;;;;16.65;15.55;;;4.40;99.90;;;;;;5034006;28;20045;-81
2023/12/27 10:02:17;;;;;;;17.92;16.33;;;4.50;99.90;;;;;;5034384;28;20054;-81
2023/12/27 10:05:02;;;;;;;18.02;16.52;;;4.60;99.90;;;;;;5034469;28;20048;-81
2023/12/27 10:07:30;;;;;;;17.42;15.77;;;4.50;99.90;;;;;;5034014;28;20050;-81
2023/12/27 10:09:55;;;;;;;17.90;16.30;;;4.60;99.90;;;;;;5017576;28;20037;-81
2023/12/27 10:12:21;;;;;;;17.52;15.82;;;4.60;99.90;;;;;;5017681;28;20470;-81
2023/12/27 10:14:50;;;;;;;17.02;15.23;;;4.70;99.90;;;;;;5034441;28;20481;-81
2023/12/27 10:17:16;;;;;;;16.80;15.35;;;4.70;99.90;;;;;;5033822;28;20471;-81
2023/12/27 10:19:44;;;;;;;17.25;15.73;;;4.70;99.90;;;;;;5017312;28;20084;-80
2023/12/27 10:22:12;;;;;;;21.33;19.02;;;4.70;99.90;;;;;;5033981;28;20050;-81
2023/12/27 10:24:39;;;;;;;19.48;17.58;;;4.80;99.90;;;;;;5033984;28;20049;-81
2023/12/27 10:27:06;;;;;;;18.08;16.75;;;4.80;99.90;;;;;;5033829;28;20050;-81
2023/12/27 10:29:32;;;;;;;17.80;15.82;;;4.80;99.90;;;;;;5033545;28;20441;-81
2023/12/27 10:32:03;;;;;;;16.75;15.40;;;4.80;99.90;;;;;;5034356;28;20053;-81
2023/12/27 10:34:30;;;;;;;16.50;15.30;;;4.80;99.90;;;;;;5016866;28;20077;-81
2023/12/27 10:36:57;;;;;;;16.88;15.57;;;4.80;99.90;;;;;;5034371;28;20391;-81
2023/12/27 10:39:23;;;;;;;16.95;15.30;;;4.90;99.90;;;;;;5033016;28;20454;-81
2023/12/27 10:41:52;;;;;;;17.17;15.65;;;4.90;99.90;;;;;;5033494;28;20087;-81
2023/12/27 10:44:19;;;;;;;16.75;15.02;;;5.00;99.90;;;;;;5016693;28;20179;-81
2023/12/27 10:46:45;;;;;;;15.82;14.63;;;5.00;99.90;;;;;;5033238;28;20085;-81
2023/12/27 10:49:14;;;;;;;16.23;15.00;;;4.90;99.90;;;;;;5032896;28;20084;-82
2023/12/27 10:51:40;;;;;;;17.63;15.90;;;5.10;99.90;;;;;;5033121;28;20551;-80
2023/12/27 10:54:07;;;;;;;16.45;15.10;;;5.00;99.90;;;;;;5033694;28;20053;-80
2023/12/27 10:56:37;;;;;;;16.27;14.68;;;5.00;99.90;;;;;;5033394;28;20049;-79
2023/12/27 10:59:07;;;;;;;17.52;15.73;;;5.10;99.90;;;;;;5033360;28;20560;-80
2023/12/27 11:01:35;;;;;;;17.83;16.05;;;5.00;99.90;;;;;;5033966;28;20076;-79
2023/12/27 11:04:11;;;;;;;17.40;15.77;;;5.00;99.90;;;;;;5032701;28;20070;-79
2023/12/27 11:06:37;;;;;;;18.08;16.38;;;5.00;99.90;;;;;;5032709;28;20049;-80
2023/12/27 11:09:08;;;;;;;18.38;16.65;;;5.00;99.90;;;;;;5032535;28;20056;-78
2023/12/27 11:11:37;;;;;;;17.48;15.98;;;5.00;99.90;;;;;;5033129;28;20041;-78
2023/12/27 11:14:04;;;;;;;17.52;16.23;;;5.30;99.90;;;;;;5032663;28;20049;-78
2023/12/27 11:16:33;;;;;;;18.35;16.83;;;5.00;99.90;;;;;;5016264;28;20045;-80
2023/12/27 11:19:00;;;;;;;18.15;16.25;;;5.00;99.90;;;;;;5032716;28;20053;-80
2023/12/27 11:21:26;;;;;;;17.38;16.13;;;5.30;99.90;;;;;;5033499;28;20136;-79
2023/12/27 11:23:52;;;;;;;18.10;16.67;;;5.00;99.90;;;;;;5033555;28;20475;-80
2023/12/27 11:26:18;;;;;;;19.50;17.67;;;5.00;99.90;;;;;;5016517;28;20049;-80
2023/12/27 11:28:46;;;;;;;19.17;17.35;;;5.00;99.90;;;;;;5032572;28;20391;-78
2023/12/27 11:31:13;;;;;;;18.17;16.67;;;5.00;99.90;;;;;;5032863;28;20045;-77
2023/12/27 11:33:39;;;;;;;20.20;18.27;;;5.00;99.90;;;;;;5000588;28;20081;-80
2023/12/27 11:36:06;;;;;;;19.38;17.80;;;5.00;99.90;;;;;;5032381;28;20049;-77
2023/12/27 11:38:32;;;;;;;19.67;17.98;;;4.90;99.90;;;;;;5016050;28;20107;-78
2023/12/27 11:41:01;;;;;;;19.85;18.38;;;4.90;99.90;;;;;;5016127;28;20164;-79
2023/12/27 11:43:51;;;;;;;20.27;18.25;;;5.10;99.90;;;;;;5015691;28;20552;-82
2023/12/27 11:46:25;;;;;;;21.17;19.13;;;4.90;99.90;;;;;;5032522;28;20057;-78
2023/12/27 11:48:51;;;;;;;21.65;20.13;;;4.90;99.90;;;;;;5032769;28;20049;-78
2023/12/27 11:51:34;;;;;;;22.63;20.63;;;4.90;99.90;;;;;;5035446;28;20048;-77
2023/12/27 11:54:04;;;;;;;21.52;19.73;;;4.90;99.90;;;;;;5036480;28;20077;-77
2023/12/27 11:56:37;;;;;;;20.20;18.42;;;4.90;99.90;;;;;;5037456;28;20501;-77
2023/12/27 11:59:08;;;;;;;21.55;19.67;;;5.20;99.90;;;;;;5037369;28;20044;-77
2023/12/27 12:01:39;;;;;;;20.10;18.48;;;5.20;99.90;;;;;;5036364;28;20183;-78
2023/12/27 12:04:35;;;;;;;18.98;17.60;;;4.90;99.90;;;;;;5037088;28;20132;-78
2023/12/27 12:07:23;;;;;;;21.43;19.53;;;5.00;99.90;;;;;;5036642;28;20057;-78
2023/12/27 12:09:49;;;;;;;20.42;18.55;;;4.90;99.90;;;;;;5036173;28;20477;-77
2023/12/27 12:12:23;;;;;;;19.73;18.20;;;5.00;99.90;;;;;;5036698;28;20474;-77
2023/12/27 12:14:53;;;;;;;19.42;17.67;;;5.00;99.90;;;;;;5036689;28;20099;-78
2023/12/27 12:17:23;;;;;;;20.08;18.55;;;5.10;99.90;;;;;;5036427;28;20093;-78
2023/12/27 12:19:49;;;;;;;20.45;18.58;;;5.00;99.90;;;;;;5035597;28;20041;-79
2023/12/27 12:22:16;;;;;;;19.70;17.73;;;5.10;99.90;;;;;;5019424;28;20048;-79
2023/12/27 12:24:45;;;;;;;19.35;17.73;;;5.10;99.90;;;;;;5019341;28;20049;-79
2023/12/27 12:27:15;;;;;;;19.10;17.52;;;5.20;99.90;;;;;;5035990;28;20081;-79
2023/12/27 12:29:41;;;;;;;18.92;17.33;;;5.20;99.90;;;;;;5036048;28;20041;-79
2023/12/27 12:32:07;;;;;;;18.90;17.45;;;5.40;99.90;;;;;;5019518;28;20056;-79
2023/12/27 12:34:33;;;;;;;19.33;17.80;;;5.30;99.90;;;;;;5019086;28;20493;-79
2023/12/27 12:37:00;;;;;;;17.20;15.77;;;5.30;99.90;;;;;;5035728;28;20056;-79